Time;durP1;ratioP1;P1;durP2;ratioP2;P2;SDS_P1;SDS_P2;PMS_P1;PMS_P2;Temp;Humidity;BMP_temperature;BMP_pressure;BME280_temperature;BME280_humidity;BME280_pressure;Samples;Min_cycle;Max_cycle;Signal;HPM_P1;HPM_P2
2022/06/23 08:06:33;;;;;;;3.95;2.22;;;29.00;99.90;;;;;;3141510;23;20638;-66
2022/06/23 08:09:05;;;;;;;4.07;1.92;;;28.30;99.90;;;;;;4945289;29;20250;-63
2022/06/23 08:14:23;;;;;;;3.33;1.88;;;28.50;99.90;;;;;;4954561;28;20238;-64
2022/06/23 08:16:49;;;;;;;4.72;2.00;;;29.30;99.90;;;;;;4954927;28;20215;-64
2022/06/23 08:19:24;;;;;;;3.63;2.40;;;29.20;99.90;;;;;;4954737;28;20218;-75
2022/06/23 08:21:56;;;;;;;4.68;2.33;;;29.30;99.90;;;;;;4954786;29;20211;-71
2022/06/23 08:24:24;;;;;;;4.05;2.20;;;29.40;99.90;;;;;;4954273;28;20232;-65
2022/06/23 08:26:56;;;;;;;3.25;2.08;;;29.80;99.90;;;;;;4954673;29;20761;-74
2022/06/23 08:29:29;;;;;;;4.80;1.92;;;29.10;99.90;;;;;;4954704;28;20238;-75
2022/06/23 08:31:57;;;;;;;6.55;2.25;;;28.90;99.90;;;;;;4954327;28;20670;-73
2022/06/23 08:34:23;;;;;;;4.00;2.13;;;28.70;99.90;;;;;;4953833;28;20710;-68
2022/06/23 08:36:59;;;;;;;3.72;1.98;;;28.80;99.90;;;;;;4954745;28;20203;-69
2022/06/23 08:39:31;;;;;;;3.47;2.20;;;29.60;99.90;;;;;;4953983;28;20215;-73
2022/06/23 08:42:02;;;;;;;3.63;1.90;;;30.00;99.90;;;;;;4954344;28;20214;-68
2022/06/23 08:44:38;;;;;;;3.13;2.00;;;29.50;99.90;;;;;;4954268;28;20322;-63
2022/06/23 08:47:12;;;;;;;4.43;2.00;;;29.20;99.90;;;;;;4954311;28;20204;-63
2022/06/23 08:49:44;;;;;;;5.03;2.42;;;29.20;99.90;;;;;;4954042;28;20228;-64
2022/06/23 08:52:19;;;;;;;2.50;1.83;;;29.40;99.90;;;;;;4954615;28;20228;-64
2022/06/23 08:54:53;;;;;;;3.50;2.22;;;29.60;99.90;;;;;;4953981;28;20232;-64
2022/06/23 08:57:26;;;;;;;2.65;1.85;;;30.10;99.90;;;;;;4954357;28;20259;-64
2022/06/23 09:00:01;;;;;;;3.17;2.10;;;30.60;99.90;;;;;;4954087;28;20212;-64
2022/06/23 09:02:33;;;;;;;3.47;1.75;;;31.10;99.90;;;;;;4954115;28;20214;-67
2022/06/23 09:05:06;;;;;;;4.65;1.55;;;31.50;99.60;;;;;;4953963;28;20236;-64
2022/06/23 09:07:43;;;;;;;2.20;2.00;;;30.90;99.70;;;;;;4954013;28;20688;-69
2022/06/23 09:10:25;;;;;;;2.42;1.60;;;31.30;99.50;;;;;;4950482;28;20242;-65
2022/06/23 09:13:00;;;;;;;3.15;1.77;;;32.00;98.80;;;;;;4952844;28;20216;-68
2022/06/23 09:15:45;;;;;;;3.00;1.70;;;32.40;97.90;;;;;;4952531;28;20302;-67
2022/06/23 09:18:44;;;;;;;6.63;2.22;;;33.00;97.90;;;;;;4952463;28;20222;-65
2022/06/23 09:21:29;;;;;;;1.98;1.60;;;32.90;97.00;;;;;;4952531;28;20216;-67
2022/06/23 09:24:24;;;;;;;2.80;1.45;;;32.90;97.20;;;;;;4955001;28;20343;-71
2022/06/23 09:26:59;;;;;;;3.15;1.70;;;32.50;97.30;;;;;;4956447;28;20320;-70
2022/06/23 09:29:41;;;;;;;2.65;1.70;;;32.20;97.40;;;;;;4956223;28;20231;-73
2022/06/23 09:32:14;;;;;;;2.78;1.60;;;31.40;98.40;;;;;;4955464;28;20302;-75
2022/06/23 09:35:02;;;;;;;2.60;1.60;;;31.80;98.10;;;;;;4956031;28;20290;-75
2022/06/23 09:38:01;;;;;;;3.05;1.88;;;31.30;98.70;;;;;;4955723;28;20212;-77
2022/06/23 09:40:43;;;;;;;3.25;1.70;;;31.30;97.90;;;;;;4955154;28;20208;-76
2022/06/23 09:43:43;;;;;;;6.00;1.58;;;31.60;97.90;;;;;;4956007;28;20235;-73
2022/06/23 09:46:37;;;;;;;2.83;1.95;;;31.50;98.00;;;;;;4955649;28;20220;-68
2022/06/23 09:49:22;;;;;;;3.97;2.28;;;31.40;98.20;;;;;;4955360;28;20208;-75
2022/06/23 09:52:10;;;;;;;2.65;1.60;;;31.50;98.50;;;;;;4955448;28;20212;-72
2022/06/23 09:55:11;;;;;;;3.95;1.98;;;30.80;99.20;;;;;;4954585;28;20234;-73
2022/06/23 09:58:05;;;;;;;4.60;1.85;;;30.10;99.80;;;;;;4952409;28;20211;-68
2022/06/23 10:00:43;;;;;;;3.10;1.70;;;29.40;99.90;;;;;;4955354;28;20229;-72
2022/06/23 10:03:26;;;;;;;3.00;1.55;;;28.90;99.90;;;;;;4955007;29;20319;-74
2022/06/23 10:06:43;;;;;;;2.58;1.73;;;29.10;99.90;;;;;;4955810;28;20270;-74
2022/06/23 10:09:24;;;;;;;2.45;1.63;;;29.10;99.90;;;;;;4895028;29;20223;-70
2022/06/23 10:12:25;;;;;;;3.97;1.40;;;29.10;99.90;;;;;;4954768;28;20222;-70
2022/06/23 10:15:11;;;;;;;3.13;1.70;;;29.40;99.90;;;;;;4941072;28;20665;-75
2022/06/23 10:17:58;;;;;;;5.72;3.00;;;29.50;99.90;;;;;;4954936;28;20609;-73
2022/06/23 10:20:39;;;;;;;2.20;1.33;;;29.60;99.90;;;;;;4955057;28;20208;-69
2022/06/23 10:23:40;;;;;;;3.78;1.45;;;29.70;99.70;;;;;;4954860;28;20259;-72
2022/06/23 10:26:22;;;;;;;3.25;1.42;;;29.50;99.70;;;;;;4954923;28;20215;-75
2022/06/23 10:29:20;;;;;;;3.05;1.70;;;29.40;99.90;;;;;;4955289;29;20215;-73
2022/06/23 10:32:09;;;;;;;2.25;1.50;;;29.40;99.90;;;;;;4954600;28;20238;-76
2022/06/23 10:34:51;;;;;;;3.22;1.52;;;29.50;99.90;;;;;;4954674;28;20667;-67
2022/06/23 10:37:47;;;;;;;1.70;1.40;;;29.00;99.90;;;;;;4956447;29;20203;-75
2022/06/23 10:40:46;;;;;;;2.70;1.30;;;28.60;99.90;;;;;;4956528;28;20580;-79
2022/06/23 10:43:29;;;;;;;2.80;1.40;;;28.40;99.90;;;;;;4920776;28;20307;-77
2022/06/23 10:46:01;;;;;;;3.80;1.42;;;28.30;99.90;;;;;;4955588;28;20208;-72
2022/06/23 10:49:06;;;;;;;8.15;3.83;;;28.40;99.90;;;;;;4956189;29;20208;-68
2022/06/23 10:51:56;;;;;;;3.35;1.63;;;28.70;99.90;;;;;;4956245;28;20690;-82
2022/06/23 10:54:45;;;;;;;2.47;1.52;;;28.90;99.90;;;;;;4955478;28;20322;-74
2022/06/23 10:57:55;;;;;;;5.07;1.70;;;29.00;99.30;;;;;;4956186;28;20659;-67
2022/06/23 11:00:29;;;;;;;4.65;2.33;;;29.10;99.60;;;;;;4956066;29;20215;-83
2022/06/23 11:03:24;;;;;;;3.33;1.40;;;29.40;99.50;;;;;;4956112;29;20208;-82
2022/06/23 11:06:16;;;;;;;2.90;1.42;;;29.50;98.10;;;;;;4955843;28;20214;-80
2022/06/23 11:09:17;;;;;;;3.70;1.63;;;29.00;98.10;;;;;;4955958;28;20215;-74
2022/06/23 11:11:55;;;;;;;4.03;1.75;;;29.20;98.60;;;;;;4956301;28;20270;-69
2022/06/23 11:14:43;;;;;;;2.33;1.27;;;29.50;98.30;;;;;;4955504;28;20710;-67
2022/06/23 11:17:20;;;;;;;2.85;1.30;;;29.80;98.30;;;;;;4953523;29;20208;-77
2022/06/23 11:20:03;;;;;;;2.10;1.38;;;29.30;98.10;;;;;;4955556;28;20211;-79
2022/06/23 11:22:39;;;;;;;2.67;1.50;;;29.20;98.50;;;;;;4955764;29;20218;-83
2022/06/23 11:25:20;;;;;;;2.63;1.80;;;29.20;98.60;;;;;;4955510;28;20318;-80
2022/06/23 11:27:56;;;;;;;2.80;1.30;;;29.10;98.60;;;;;;4956043;28;20214;-82
2022/06/23 11:30:31;;;;;;;2.45;1.20;;;29.10;98.70;;;;;;4955622;29;20238;-73
2022/06/23 11:33:17;;;;;;;2.55;1.27;;;29.00;98.80;;;;;;4955471;28;20208;-80
2022/06/23 11:36:12;;;;;;;2.90;1.83;;;28.90;98.60;;;;;;4955402;28;20219;-67
2022/06/23 11:39:00;;;;;;;1.73;1.25;;;28.80;99.00;;;;;;4933701;28;20208;-79
2022/06/23 11:41:54;;;;;;;5.40;1.42;;;29.00;98.00;;;;;;4955221;28;20651;-68
2022/06/23 11:44:42;;;;;;;4.13;1.27;;;29.00;99.50;;;;;;4954944;28;20243;-64
2022/06/23 11:47:16;;;;;;;2.40;1.15;;;29.10;99.20;;;;;;4954823;28;20671;-69
2022/06/23 11:49:54;;;;;;;2.08;1.23;;;29.00;98.90;;;;;;4955978;28;20208;-76
2022/06/23 11:52:44;;;;;;;3.00;1.27;;;28.60;99.00;;;;;;4955708;28;20218;-65
2022/06/23 11:55:32;;;;;;;1.13;1.00;;;28.90;99.90;;;;;;4953339;28;20207;-69
2022/06/23 11:58:22;;;;;;;3.35;1.10;;;28.90;99.40;;;;;;4955928;28;20204;-66
2022/06/23 12:01:13;;;;;;;2.25;1.30;;;29.00;99.90;;;;;;4955443;29;20294;-64
2022/06/23 12:04:17;;;;;;;2.05;1.10;;;29.10;99.10;;;;;;4955024;28;20232;-69
2022/06/23 12:07:01;;;;;;;1.17;1.08;;;29.20;99.40;;;;;;4954935;28;20692;-71
2022/06/23 12:09:36;;;;;;;3.15;1.20;;;29.10;99.10;;;;;;4954962;28;20271;-68
2022/06/23 12:12:06;;;;;;;2.72;1.40;;;28.90;99.20;;;;;;4954950;28;20323;-74
2022/06/23 12:14:36;;;;;;;2.00;1.10;;;28.80;99.30;;;;;;4955011;28;20238;-65
2022/06/23 12:17:09;;;;;;;2.50;1.33;;;28.80;99.40;;;;;;4954748;28;20564;-64
2022/06/23 12:19:46;;;;;;;3.25;1.25;;;29.10;99.50;;;;;;4954871;28;20303;-65
2022/06/23 12:22:21;;;;;;;1.75;1.08;;;29.40;98.60;;;;;;4954748;28;20209;-64
2022/06/23 12:25:00;;;;;;;3.20;1.15;;;29.40;98.60;;;;;;4955127;29;20227;-67
2022/06/23 12:27:32;;;;;;;1.50;1.00;;;29.40;98.70;;;;;;4955301;29;20222;-64
2022/06/23 12:30:05;;;;;;;1.30;1.10;;;29.40;98.70;;;;;;4954957;28;20212;-64
2022/06/23 12:32:41;;;;;;;2.58;1.30;;;29.50;98.40;;;;;;4954762;28;20211;-69
2022/06/23 12:35:16;;;;;;;1.88;1.17;;;29.40;98.80;;;;;;4954833;28;20222;-79
2022/06/23 12:37:47;;;;;;;2.65;1.20;;;29.50;99.10;;;;;;4955136;28;20208;-65
2022/06/23 12:40:21;;;;;;;3.67;1.30;;;29.50;98.60;;;;;;4955126;28;20208;-85
2022/06/23 12:42:52;;;;;;;2.13;0.90;;;29.40;98.50;;;;;;4955117;29;20227;-77
2022/06/23 12:45:34;;;;;;;1.42;1.10;;;29.20;98.50;;;;;;4954917;28;20267;-75
2022/06/23 12:48:24;;;;;;;1.75;1.25;;;29.20;98.30;;;;;;4955184;28;20234;-86
2022/06/23 12:51:00;;;;;;;2.15;1.15;;;29.10;99.00;;;;;;4954942;28;20235;-67
2022/06/23 12:53:49;;;;;;;4.57;1.50;;;29.00;98.40;;;;;;4954517;28;20257;-65
2022/06/23 12:56:45;;;;;;;1.20;1.05;;;29.00;99.50;;;;;;4955426;28;20579;-68
2022/06/23 12:59:22;;;;;;;1.63;1.17;;;28.90;98.80;;;;;;4958575;28;20204;-66
2022/06/23 13:01:54;;;;;;;1.65;1.10;;;28.70;98.80;;;;;;4958831;29;20203;-69
2022/06/23 13:04:27;;;;;;;2.10;1.00;;;28.70;99.10;;;;;;4958841;28;20228;-80
2022/06/23 13:07:01;;;;;;;1.67;1.30;;;28.90;98.70;;;;;;4958978;28;20689;-86
2022/06/23 13:09:38;;;;;;;2.85;1.10;;;29.00;98.60;;;;;;4959020;28;20227;-72
2022/06/23 13:12:09;;;;;;;1.05;0.93;;;29.10;98.10;;;;;;4958391;29;20332;-72
2022/06/23 13:14:43;;;;;;;1.17;0.95;;;29.10;97.90;;;;;;4958245;28;20335;-71
2022/06/23 13:17:21;;;;;;;2.10;1.30;;;29.30;98.20;;;;;;4958323;29;20208;-82
2022/06/23 13:19:56;;;;;;;1.40;1.13;;;29.10;97.90;;;;;;4957929;29;20324;-72
2022/06/23 13:22:23;;;;;;;1.95;1.10;;;29.00;98.00;;;;;;4957946;29;20222;-69
2022/06/23 13:24:54;;;;;;;2.50;1.20;;;29.20;99.00;;;;;;4957728;29;20232;-81
2022/06/23 13:27:24;;;;;;;3.85;1.13;;;29.40;97.70;;;;;;4958222;28;20314;-79
2022/06/23 13:29:59;;;;;;;1.83;1.17;;;29.40;96.40;;;;;;4958040;28;20207;-76
2022/06/23 13:32:35;;;;;;;2.28;1.63;;;29.20;97.60;;;;;;4957312;28;20246;-76
2022/06/23 13:35:13;;;;;;;1.70;1.10;;;29.20;97.60;;;;;;4957467;29;20235;-76
2022/06/23 13:37:47;;;;;;;1.60;1.20;;;29.00;97.30;;;;;;4957943;28;20203;-66
2022/06/23 13:40:24;;;;;;;1.67;1.10;;;28.80;97.80;;;;;;4957608;28;20254;-70
2022/06/23 13:43:02;;;;;;;5.47;1.35;;;28.80;97.70;;;;;;4957260;28;20226;-75
2022/06/23 13:45:37;;;;;;;1.70;1.40;;;28.70;97.60;;;;;;4957372;28;20204;-65
2022/06/23 13:48:11;;;;;;;1.38;1.20;;;28.70;98.60;;;;;;4957728;28;20208;-75
2022/06/23 13:50:46;;;;;;;1.20;1.10;;;28.80;98.20;;;;;;4957299;29;20663;-66
2022/06/23 13:53:19;;;;;;;2.10;1.45;;;28.70;97.40;;;;;;4957423;28;20224;-77
2022/06/23 13:55:54;;;;;;;2.55;1.10;;;28.80;97.90;;;;;;4957669;29;20215;-71
2022/06/23 13:58:27;;;;;;;3.97;1.52;;;28.90;97.70;;;;;;4957478;29;20572;-66
2022/06/23 14:00:59;;;;;;;2.33;1.10;;;29.10;97.60;;;;;;4957730;28;20266;-82
2022/06/23 14:03:38;;;;;;;3.50;1.50;;;29.30;97.70;;;;;;4957978;28;20232;-81
2022/06/23 14:06:09;;;;;;;2.13;1.20;;;29.20;96.50;;;;;;4957221;28;20301;-76
2022/06/23 14:08:40;;;;;;;1.23;1.13;;;29.20;97.00;;;;;;4956618;28;20223;-77
2022/06/23 14:11:15;;;;;;;3.10;1.17;;;29.10;96.60;;;;;;4957165;28;20706;-79
2022/06/23 14:13:49;;;;;;;1.38;1.02;;;29.00;96.40;;;;;;4957589;29;20236;-76
2022/06/23 14:16:23;;;;;;;1.20;1.08;;;29.00;97.20;;;;;;4957103;28;20252;-78
2022/06/23 14:18:57;;;;;;;1.98;1.40;;;29.10;97.20;;;;;;4957192;29;20218;-84
2022/06/23 14:21:30;;;;;;;2.10;1.20;;;29.10;97.30;;;;;;4957438;29;20248;-83
2022/06/23 14:24:05;;;;;;;2.17;1.02;;;29.20;96.20;;;;;;4957226;29;20224;-83
2022/06/23 14:26:43;;;;;;;2.00;1.15;;;29.20;96.50;;;;;;4957144;28;20215;-83
2022/06/23 14:29:18;;;;;;;2.45;1.15;;;29.20;96.40;;;;;;4956803;29;20303;-82
2022/06/23 14:31:54;;;;;;;3.85;1.13;;;29.20;96.30;;;;;;4956850;29;20235;-79
2022/06/23 14:34:25;;;;;;;1.63;1.08;;;29.30;96.00;;;;;;4956997;29;20318;-83
2022/06/23 14:36:57;;;;;;;2.47;1.10;;;29.40;96.70;;;;;;4956927;28;20294;-76
2022/06/23 14:39:31;;;;;;;1.58;1.10;;;29.50;96.30;;;;;;4956581;29;20212;-66
2022/06/23 14:42:10;;;;;;;3.05;1.13;;;29.40;96.10;;;;;;4956485;29;20214;-85
2022/06/23 14:44:52;;;;;;;2.10;1.05;;;29.40;96.30;;;;;;4956806;29;20236;-77
2022/06/23 14:47:29;;;;;;;1.70;1.00;;;29.40;96.10;;;;;;4956683;29;20207;-75
2022/06/23 14:50:19;;;;;;;2.35;1.00;;;29.30;96.50;;;;;;4956354;28;20247;-79
2022/06/23 14:52:54;;;;;;;1.13;1.02;;;29.40;97.30;;;;;;4956458;28;20242;-81
2022/06/23 14:55:27;;;;;;;1.42;0.85;;;29.10;96.90;;;;;;4956512;28;20242;-75
2022/06/23 14:58:02;;;;;;;1.45;0.98;;;29.10;96.70;;;;;;4956266;28;20303;-71
2022/06/23 15:00:40;;;;;;;1.42;1.02;;;29.20;96.40;;;;;;4956177;28;20659;-80
2022/06/23 15:03:14;;;;;;;1.83;1.13;;;29.20;96.00;;;;;;4956185;29;20233;-81
2022/06/23 15:05:46;;;;;;;1.73;1.23;;;29.40;97.10;;;;;;4956328;29;20544;-79
2022/06/23 15:08:21;;;;;;;1.02;0.95;;;29.50;96.80;;;;;;4959750;29;20559;-78
2022/06/23 15:10:56;;;;;;;1.75;0.90;;;29.40;95.50;;;;;;4958200;28;20239;-83
2022/06/23 15:13:40;;;;;;;1.13;0.98;;;29.20;94.90;;;;;;4958186;28;20270;-85
2022/06/23 15:16:14;;;;;;;1.15;0.80;;;29.20;95.00;;;;;;4957544;28;20203;-80
2022/06/23 15:18:49;;;;;;;1.88;0.93;;;29.10;95.10;;;;;;4957771;28;20292;-77
2022/06/23 15:24:17;;;;;;;2.10;1.00;;;29.20;95.90;;;;;;4956958;28;20231;-79
2022/06/23 15:26:54;;;;;;;0.77;0.60;;;29.20;95.40;;;;;;4957139;28;20218;-85
2022/06/23 15:29:28;;;;;;;1.52;0.75;;;29.30;94.10;;;;;;4957047;29;20207;-82
2022/06/23 15:32:00;;;;;;;1.38;0.80;;;29.20;94.40;;;;;;4957529;29;20236;-80
2022/06/23 15:34:39;;;;;;;1.52;0.70;;;29.30;94.30;;;;;;4956648;29;20234;-65
2022/06/23 15:37:21;;;;;;;1.83;1.00;;;29.30;94.00;;;;;;4955308;28;20235;-85
2022/06/23 15:39:53;;;;;;;1.58;1.00;;;29.20;94.60;;;;;;4955167;28;20212;-80
2022/06/23 15:42:32;;;;;;;1.05;0.77;;;29.30;94.30;;;;;;4955228;28;20594;-85
2022/06/23 15:45:10;;;;;;;0.77;0.60;;;29.40;93.50;;;;;;4957190;28;20227;-85
2022/06/23 15:47:42;;;;;;;2.13;1.08;;;29.40;93.50;;;;;;4957249;29;20208;-76
2022/06/23 15:50:17;;;;;;;0.80;0.68;;;29.20;93.40;;;;;;4958020;28;20290;-85
2022/06/23 15:52:50;;;;;;;0.80;0.70;;;29.20;93.70;;;;;;4956955;29;20745;-83
2022/06/23 15:55:25;;;;;;;1.60;0.65;;;29.10;93.00;;;;;;4957895;29;20236;-81
2022/06/23 15:57:59;;;;;;;0.70;0.55;;;29.10;93.20;;;;;;4957991;29;20729;-69
2022/06/23 16:00:32;;;;;;;5.07;0.85;;;29.10;93.00;;;;;;4955733;28;20307;-86
2022/06/23 16:03:06;;;;;;;0.65;0.57;;;29.20;93.50;;;;;;4955567;29;20221;-71
2022/06/23 16:05:35;;;;;;;0.68;0.50;;;29.20;93.40;;;;;;4955897;28;20208;-86
2022/06/23 16:08:08;;;;;;;1.20;0.70;;;29.20;93.20;;;;;;4955113;29;20258;-76
2022/06/23 16:10:39;;;;;;;1.67;0.95;;;29.20;93.10;;;;;;4955334;28;20208;-64
2022/06/23 16:13:17;;;;;;;0.70;0.60;;;29.10;92.20;;;;;;4955124;28;20250;-82
2022/06/23 16:15:47;;;;;;;1.25;0.80;;;29.00;92.30;;;;;;4955761;28;20290;-65
2022/06/23 16:18:18;;;;;;;2.05;0.80;;;28.90;93.20;;;;;;4955084;28;20679;-75
2022/06/23 16:20:57;;;;;;;0.60;0.50;;;28.90;93.40;;;;;;4954876;28;20296;-64
2022/06/23 16:23:33;;;;;;;0.73;0.60;;;29.10;93.20;;;;;;4954906;28;20298;-76
2022/06/23 16:26:04;;;;;;;1.85;0.68;;;28.90;93.20;;;;;;4954583;29;20666;-71
2022/06/23 16:28:39;;;;;;;0.75;0.60;;;28.90;93.30;;;;;;4954917;28;20207;-70
2022/06/23 16:31:24;;;;;;;1.80;0.57;;;28.90;93.30;;;;;;4955053;28;20215;-67
2022/06/23 16:33:57;;;;;;;1.05;0.70;;;28.90;93.00;;;;;;4958642;29;20258;-72
2022/06/23 16:36:31;;;;;;;0.90;0.60;;;28.90;93.70;;;;;;4958707;28;20212;-71
2022/06/23 16:39:03;;;;;;;3.58;0.82;;;28.80;93.70;;;;;;4958872;28;20212;-74
2022/06/23 16:41:59;;;;;;;1.08;0.80;;;28.80;93.60;;;;;;4955379;28;20212;-64
2022/06/23 16:44:35;;;;;;;2.10;0.80;;;28.90;93.80;;;;;;4936309;29;20246;-77
2022/06/23 16:47:09;;;;;;;2.67;0.55;;;28.80;93.80;;;;;;4958810;28;20211;-72
2022/06/23 16:49:45;;;;;;;1.85;0.63;;;28.70;93.80;;;;;;4958514;28;20666;-78
2022/06/23 16:52:23;;;;;;;0.50;0.50;;;28.70;93.30;;;;;;4957949;28;20255;-69
2022/06/23 16:55:00;;;;;;;1.27;0.60;;;28.70;93.70;;;;;;4958226;28;20231;-72
2022/06/23 16:57:35;;;;;;;0.60;0.57;;;28.80;94.40;;;;;;4957983;28;20207;-73
2022/06/23 17:00:06;;;;;;;0.60;0.60;;;28.90;94.20;;;;;;4958417;29;20196;-67
2022/06/23 17:02:38;;;;;;;2.15;0.70;;;28.90;94.30;;;;;;4958394;28;20663;-65
2022/06/23 17:05:13;;;;;;;0.65;0.57;;;28.90;93.70;;;;;;4958439;28;20234;-67
2022/06/23 17:07:47;;;;;;;1.65;0.70;;;29.00;94.50;;;;;;4958833;28;20376;-73
2022/06/23 17:10:18;;;;;;;1.25;0.80;;;29.10;94.00;;;;;;4959237;28;20208;-78
2022/06/23 17:12:51;;;;;;;1.92;0.70;;;29.20;93.90;;;;;;4957625;28;20244;-79
2022/06/23 17:15:22;;;;;;;1.02;0.80;;;29.30;94.20;;;;;;4958412;28;20234;-82
2022/06/23 17:18:02;;;;;;;2.05;0.60;;;29.50;94.40;;;;;;4957885;28;20208;-68
2022/06/23 17:20:31;;;;;;;1.23;0.70;;;29.60;93.90;;;;;;4957829;28;20295;-70
2022/06/23 17:23:02;;;;;;;1.42;0.80;;;29.60;94.60;;;;;;4957388;28;20204;-75
2022/06/23 17:25:32;;;;;;;1.42;0.80;;;29.70;94.50;;;;;;4957991;28;20290;-78
2022/06/23 17:28:09;;;;;;;2.17;0.90;;;29.90;94.30;;;;;;4957792;28;20204;-64
2022/06/23 17:30:44;;;;;;;0.88;0.73;;;29.90;94.30;;;;;;4957495;28;20212;-71
2022/06/23 17:33:19;;;;;;;2.05;0.95;;;29.70;94.40;;;;;;4957157;28;20250;-75
2022/06/23 17:35:52;;;;;;;2.00;0.93;;;29.60;93.90;;;;;;4957733;28;20211;-78
2022/06/23 17:44:09;;;;;;;1.02;0.60;;;29.10;95.00;;;;;;4937055;29;20231;-73
2022/06/23 17:46:41;;;;;;;0.68;0.60;;;29.10;95.20;;;;;;4938140;29;20295;-75
2022/06/23 17:49:15;;;;;;;0.73;0.60;;;29.00;95.00;;;;;;4938258;29;20240;-75
2022/06/23 17:51:45;;;;;;;2.15;1.05;;;28.90;94.90;;;;;;4941019;28;20211;-75
2022/06/23 17:54:17;;;;;;;2.03;0.80;;;28.80;95.30;;;;;;4957563;28;20371;-79
2022/06/23 17:56:50;;;;;;;1.38;1.00;;;28.80;95.90;;;;;;4957506;28;20204;-76
2022/06/23 17:59:24;;;;;;;3.45;1.17;;;28.70;95.70;;;;;;4957240;28;20208;-78
2022/06/23 18:01:59;;;;;;;0.98;0.63;;;28.70;94.90;;;;;;4956691;28;20243;-73
2022/06/23 18:04:38;;;;;;;1.00;0.80;;;28.70;95.60;;;;;;4956797;28;20227;-84
2022/06/23 18:07:06;;;;;;;1.52;0.73;;;28.80;95.60;;;;;;4956904;28;20647;-80
2022/06/23 18:09:36;;;;;;;1.25;0.65;;;28.80;95.60;;;;;;4957083;28;20645;-79
2022/06/23 18:12:08;;;;;;;2.63;0.70;;;28.90;95.80;;;;;;4957603;28;20228;-80
2022/06/23 18:14:43;;;;;;;0.63;0.63;;;28.80;95.70;;;;;;4956705;28;20236;-81
2022/06/23 18:17:19;;;;;;;2.10;0.70;;;28.60;96.80;;;;;;4957501;29;20270;-85
2022/06/23 18:19:54;;;;;;;1.15;0.70;;;28.60;95.50;;;;;;4957802;29;20335;-77
2022/06/23 18:22:25;;;;;;;1.73;0.65;;;28.50;95.70;;;;;;4957168;28;20211;-79
2022/06/23 18:25:00;;;;;;;2.35;1.02;;;28.50;95.90;;;;;;4956990;28;20232;-84
2022/06/23 18:27:34;;;;;;;1.00;0.70;;;28.60;96.00;;;;;;4957132;29;20207;-75
2022/06/23 18:30:09;;;;;;;2.25;0.80;;;28.60;96.10;;;;;;4958248;28;20208;-82
2022/06/23 18:32:43;;;;;;;1.38;0.65;;;28.70;95.70;;;;;;4957155;28;20766;-86
2022/06/23 18:35:15;;;;;;;2.50;0.70;;;28.80;95.60;;;;;;4956947;28;20216;-81
2022/06/23 18:37:48;;;;;;;3.47;0.73;;;28.60;95.30;;;;;;4952947;28;20315;-65
2022/06/23 18:40:27;;;;;;;2.35;0.65;;;28.60;95.00;;;;;;4957012;29;20662;-78
2022/06/23 18:42:58;;;;;;;2.70;0.60;;;28.60;95.10;;;;;;4956686;29;20579;-72
2022/06/23 18:45:35;;;;;;;1.60;0.80;;;28.60;95.20;;;;;;4956514;29;20212;-69
2022/06/23 18:48:08;;;;;;;1.23;0.60;;;28.60;95.10;;;;;;4956771;29;20207;-76
2022/06/23 18:50:43;;;;;;;1.58;0.52;;;28.60;95.30;;;;;;4956561;29;20216;-77
2022/06/23 18:53:24;;;;;;;1.25;0.80;;;28.60;95.30;;;;;;4955929;28;20281;-65
2022/06/23 18:56:00;;;;;;;1.25;0.63;;;28.50;95.70;;;;;;4955842;28;20570;-73
2022/06/23 18:58:31;;;;;;;1.52;0.65;;;28.30;95.90;;;;;;4956489;29;20214;-69
2022/06/23 19:01:04;;;;;;;1.02;0.60;;;28.20;95.70;;;;;;4956983;28;20208;-72
2022/06/23 19:03:37;;;;;;;0.75;0.50;;;28.10;96.30;;;;;;4956087;28;20228;-74
2022/06/23 19:06:22;;;;;;;1.52;0.90;;;28.20;96.10;;;;;;4956296;29;20223;-69
2022/06/23 19:08:53;;;;;;;0.60;0.57;;;28.10;96.00;;;;;;4956055;29;20675;-73
2022/06/23 19:11:32;;;;;;;1.88;0.88;;;28.10;96.20;;;;;;4955754;29;20211;-64
2022/06/23 19:14:07;;;;;;;1.90;0.80;;;28.10;96.50;;;;;;4955958;29;20245;-72
2022/06/23 19:16:39;;;;;;;1.10;0.65;;;28.00;96.50;;;;;;4955901;29;20214;-73
2022/06/23 19:19:15;;;;;;;1.67;0.63;;;28.00;96.60;;;;;;4955666;28;20211;-75
2022/06/23 19:21:53;;;;;;;2.67;0.90;;;27.90;96.90;;;;;;4955841;28;20294;-73
2022/06/23 19:24:34;;;;;;;1.10;0.90;;;27.80;97.30;;;;;;4955754;28;20247;-73
2022/06/23 19:27:10;;;;;;;0.80;0.52;;;27.60;98.00;;;;;;4955613;28;20208;-77
2022/06/23 19:29:49;;;;;;;0.95;0.60;;;27.50;98.10;;;;;;4955391;28;20704;-64
2022/06/23 19:32:25;;;;;;;0.93;0.60;;;27.40;98.20;;;;;;4955395;29;20215;-68
2022/06/23 19:34:56;;;;;;;1.08;0.60;;;27.30;98.70;;;;;;4955755;29;20227;-69
2022/06/23 19:37:50;;;;;;;0.95;0.77;;;27.20;98.80;;;;;;4955573;29;20302;-64
2022/06/23 19:40:30;;;;;;;1.48;0.85;;;27.10;99.10;;;;;;4955487;29;20211;-68
2022/06/23 19:43:07;;;;;;;2.38;0.77;;;27.00;98.90;;;;;;4955253;28;20212;-67
2022/06/23 19:45:37;;;;;;;0.65;0.60;;;26.90;98.90;;;;;;4955647;29;20684;-63
2022/06/23 19:48:11;;;;;;;0.95;0.80;;;26.90;98.90;;;;;;4955429;29;20212;-66
2022/06/23 19:50:45;;;;;;;1.30;1.00;;;26.80;99.20;;;;;;4955462;28;20214;-64
2022/06/23 19:53:24;;;;;;;0.75;0.70;;;26.70;99.30;;;;;;4955162;28;20239;-67
2022/06/23 19:55:51;;;;;;;1.88;0.85;;;26.60;99.60;;;;;;4955270;28;20219;-67
2022/06/23 19:58:34;;;;;;;1.52;0.95;;;26.50;99.90;;;;;;4955089;28;20211;-73
2022/06/23 20:01:06;;;;;;;1.88;0.80;;;26.40;99.90;;;;;;4955180;29;20302;-63
2022/06/23 20:03:47;;;;;;;2.13;0.80;;;26.40;99.90;;;;;;4955726;28;20224;-73
2022/06/23 20:06:24;;;;;;;1.05;0.70;;;26.50;99.90;;;;;;4954600;28;20219;-67
2022/06/23 20:09:01;;;;;;;1.10;0.73;;;26.50;99.90;;;;;;4954899;28;20299;-64
2022/06/23 20:11:38;;;;;;;1.40;0.90;;;26.50;99.90;;;;;;4954798;28;20230;-64
2022/06/23 20:14:13;;;;;;;1.33;1.00;;;26.40;99.90;;;;;;4955126;29;20302;-68
2022/06/23 20:16:44;;;;;;;2.10;1.10;;;26.20;99.90;;;;;;4955054;29;20203;-78
2022/06/23 20:19:14;;;;;;;1.90;0.80;;;26.10;99.90;;;;;;4955150;29;20211;-71
2022/06/23 20:21:51;;;;;;;2.20;0.90;;;26.00;99.90;;;;;;4955116;28;20218;-73
2022/06/23 20:24:27;;;;;;;1.27;1.00;;;26.00;99.90;;;;;;4954864;28;20235;-70
2022/06/23 20:27:00;;;;;;;1.70;0.90;;;26.00;99.90;;;;;;4954918;29;20212;-69
2022/06/23 20:29:53;;;;;;;1.50;0.93;;;25.80;99.90;;;;;;4955075;28;20211;-68
2022/06/23 20:32:28;;;;;;;2.05;0.80;;;25.50;99.90;;;;;;4954564;28;20685;-68
2022/06/23 20:35:17;;;;;;;1.10;0.80;;;25.40;99.90;;;;;;4954708;28;20325;-66
2022/06/23 20:38:07;;;;;;;1.10;0.70;;;25.30;99.90;;;;;;4954681;28;20580;-65
2022/06/23 20:40:51;;;;;;;1.30;0.75;;;25.20;99.90;;;;;;4954892;28;20208;-66
2022/06/23 20:43:26;;;;;;;0.65;0.60;;;25.10;99.90;;;;;;4954886;28;20259;-74
2022/06/23 20:46:16;;;;;;;1.10;0.85;;;25.10;99.90;;;;;;4954855;28;20212;-67
2022/06/23 20:48:59;;;;;;;1.50;0.90;;;25.00;99.90;;;;;;4954468;29;20207;-74
2022/06/23 20:51:31;;;;;;;1.80;1.10;;;24.90;99.90;;;;;;4954712;28;20295;-65
2022/06/23 20:54:02;;;;;;;3.53;1.00;;;24.90;99.90;;;;;;4954408;29;20271;-75
2022/06/23 20:56:40;;;;;;;1.92;0.93;;;25.00;99.90;;;;;;4954626;29;20298;-64
2022/06/23 20:59:20;;;;;;;3.58;1.13;;;25.00;99.90;;;;;;4954598;28;20211;-64
2022/06/23 21:01:56;;;;;;;2.08;0.90;;;25.10;99.90;;;;;;4954819;28;20204;-77
2022/06/23 21:04:29;;;;;;;1.50;1.00;;;25.00;99.90;;;;;;4954198;28;20231;-66
2022/06/23 21:07:04;;;;;;;2.05;0.95;;;25.00;99.90;;;;;;4954321;28;20218;-64
2022/06/23 21:09:41;;;;;;;0.93;0.85;;;25.00;99.90;;;;;;4954408;28;20234;-64
2022/06/23 21:12:20;;;;;;;1.27;0.90;;;24.90;99.90;;;;;;4954791;28;20562;-74
2022/06/23 21:14:55;;;;;;;2.05;0.90;;;24.80;99.90;;;;;;4954235;28;20290;-72
2022/06/23 21:17:38;;;;;;;2.38;0.82;;;24.80;99.90;;;;;;4955159;28;20215;-72
2022/06/23 21:20:14;;;;;;;2.08;1.00;;;24.80;99.90;;;;;;4957951;29;20212;-76
2022/06/23 21:22:55;;;;;;;2.40;1.00;;;24.90;99.90;;;;;;4958205;29;20203;-79
2022/06/23 21:25:36;;;;;;;1.02;0.90;;;24.90;99.90;;;;;;4958059;29;20271;-76
2022/06/23 21:28:43;;;;;;;0.80;0.80;;;24.90;99.90;;;;;;4957927;29;20204;-78
2022/06/23 21:31:16;;;;;;;1.98;1.05;;;24.90;99.90;;;;;;4957741;28;20215;-75
2022/06/23 21:33:47;;;;;;;1.67;1.00;;;24.90;99.90;;;;;;4957676;29;20243;-74
2022/06/23 21:36:20;;;;;;;1.63;1.00;;;24.90;99.90;;;;;;4957685;29;20218;-68
2022/06/23 21:38:50;;;;;;;1.35;0.90;;;24.80;99.90;;;;;;4957913;28;20535;-73
2022/06/23 21:41:24;;;;;;;1.70;1.00;;;24.90;99.90;;;;;;4957710;29;20212;-78
2022/06/23 21:44:03;;;;;;;1.95;1.00;;;24.90;99.90;;;;;;4957610;29;20227;-72
2022/06/23 21:46:37;;;;;;;1.52;1.10;;;24.80;99.90;;;;;;4957560;29;20214;-76
2022/06/23 21:49:22;;;;;;;1.38;0.95;;;24.70;99.90;;;;;;4957854;28;20212;-78
2022/06/23 21:51:57;;;;;;;1.30;1.10;;;24.70;99.90;;;;;;4957461;28;20222;-68
2022/06/23 21:54:38;;;;;;;3.17;0.93;;;24.70;99.90;;;;;;4957173;28;20267;-75
2022/06/23 21:57:37;;;;;;;2.15;1.00;;;24.70;99.90;;;;;;4957489;29;20208;-75
2022/06/23 22:00:10;;;;;;;1.58;1.00;;;24.70;99.90;;;;;;4957396;28;20230;-78